createdAt,value
2018-06-30T00:00:56.245Z,1009.98
2018-06-30T00:01:56.271Z,1009.98
2018-06-30T00:02:56.290Z,1010.05
2018-06-30T00:03:56.317Z,1010.01
2018-06-30T00:04:56.336Z,1010.06
2018-06-30T00:05:56.357Z,1010.03
2018-06-30T00:06:56.376Z,1010.03
2018-06-30T00:07:56.398Z,1010.05
2018-06-30T00:08:56.423Z,1010.07
2018-06-30T00:09:56.444Z,1010.10
2018-06-30T00:10:56.463Z,1010.07
2018-06-30T00:11:56.488Z,1010.05
2018-06-30T00:12:56.506Z,1010.10
2018-06-30T00:13:56.531Z,1010.06
2018-06-30T00:14:56.550Z,1010.10
2018-06-30T00:15:56.576Z,1010.04
2018-06-30T00:16:56.597Z,1010.08
2018-06-30T00:17:56.619Z,1010.06
2018-06-30T00:18:56.641Z,1010.01
2018-06-30T00:19:56.664Z,1010.04
2018-06-30T00:20:56.685Z,1010.00
2018-06-30T00:21:56.705Z,1010.01
2018-06-30T00:22:56.772Z,1009.99
2018-06-30T00:23:56.751Z,1010.01
2018-06-30T00:24:56.770Z,1009.99
2018-06-30T00:25:56.792Z,1010.00
2018-06-30T00:26:56.811Z,1009.99
2018-06-30T00:27:56.836Z,1009.99
2018-06-30T00:28:56.854Z,1009.97
2018-06-30T00:29:56.878Z,1009.95
2018-06-30T00:30:56.900Z,1009.96
2018-06-30T00:31:56.920Z,1009.97
2018-06-30T00:32:56.943Z,1009.97
2018-06-30T00:33:56.968Z,1009.96
2018-06-30T00:34:56.985Z,1009.93
2018-06-30T00:35:57.007Z,1009.95
2018-06-30T00:36:57.031Z,1009.96
2018-06-30T00:37:57.053Z,1009.92
2018-06-30T00:38:57.078Z,1009.95
2018-06-30T00:39:57.094Z,1009.92
2018-06-30T00:40:57.117Z,1009.94
2018-06-30T00:41:57.138Z,1009.91
2018-06-30T00:42:57.158Z,1009.89
2018-06-30T00:43:57.183Z,1009.92
2018-06-30T00:44:57.205Z,1009.91
2018-06-30T00:45:57.226Z,1009.94
2018-06-30T00:46:57.248Z,1009.91
2018-06-30T00:47:57.269Z,1009.88
2018-06-30T00:48:57.290Z,1009.84
2018-06-30T00:49:57.313Z,1009.88
2018-06-30T00:50:57.331Z,1009.89
2018-06-30T00:51:57.360Z,1009.91
2018-06-30T00:52:57.377Z,1009.97
2018-06-30T00:53:57.397Z,1009.91
2018-06-30T00:54:57.422Z,1009.92
2018-06-30T00:55:57.442Z,1009.93
2018-06-30T00:56:57.463Z,1009.93
2018-06-30T00:57:57.486Z,1009.90
2018-06-30T00:58:57.505Z,1009.94
2018-06-30T00:59:57.530Z,1009.95
2018-06-30T01:00:57.550Z,1009.97
2018-06-30T01:01:57.570Z,1009.95
2018-06-30T01:02:57.591Z,1009.94
2018-06-30T01:03:57.616Z,1009.95
2018-06-30T01:04:57.637Z,1009.95
2018-06-30T01:05:57.659Z,1009.96
2018-06-30T01:06:57.678Z,1009.94
2018-06-30T01:07:57.701Z,1009.97
2018-06-30T01:08:57.722Z,1009.95
2018-06-30T01:09:57.744Z,1009.97
2018-06-30T01:10:57.767Z,1009.95
2018-06-30T01:11:57.785Z,1009.96
2018-06-30T01:12:57.809Z,1009.91
2018-06-30T01:13:57.831Z,1009.98
2018-06-30T01:14:57.854Z,1010.01
2018-06-30T01:15:57.872Z,1009.95
2018-06-30T01:16:57.896Z,1009.98
2018-06-30T01:17:57.917Z,1009.99
2018-06-30T01:18:57.938Z,1010.00
2018-06-30T01:19:57.958Z,1010.03
2018-06-30T01:20:57.982Z,1009.98
2018-06-30T01:21:58.002Z,1009.99
2018-06-30T01:22:58.024Z,1010.03
2018-06-30T01:23:58.050Z,1009.99
2018-06-30T01:24:58.070Z,1009.97
2018-06-30T01:25:58.088Z,1009.97
2018-06-30T01:26:58.108Z,1010.01
2018-06-30T01:27:58.130Z,1009.94
2018-06-30T01:28:58.153Z,1009.94
2018-06-30T01:29:58.175Z,1009.95
2018-06-30T01:30:58.197Z,1010.00
2018-06-30T01:31:58.219Z,1009.97
2018-06-30T01:32:58.242Z,1009.95
2018-06-30T01:33:58.262Z,1009.95
2018-06-30T01:34:58.283Z,1009.95
2018-06-30T01:35:58.303Z,1009.93
2018-06-30T01:36:58.327Z,1009.91
2018-06-30T01:37:58.345Z,1009.93
2018-06-30T01:38:58.370Z,1009.93
2018-06-30T01:39:58.393Z,1009.96
2018-06-30T01:40:58.410Z,1009.95
2018-06-30T01:41:58.432Z,1009.93
2018-06-30T01:42:58.454Z,1009.95
2018-06-30T01:43:58.475Z,1009.94
2018-06-30T01:44:58.499Z,1009.95
2018-06-30T01:45:58.520Z,1009.98
2018-06-30T01:46:58.543Z,1009.90
2018-06-30T01:47:58.567Z,1009.93
2018-06-30T01:48:58.582Z,1009.94
2018-06-30T01:49:58.606Z,1009.90
2018-06-30T01:50:58.627Z,1009.89
2018-06-30T01:51:58.647Z,1009.95
2018-06-30T01:52:58.670Z,1009.90
2018-06-30T01:53:58.690Z,1009.92
2018-06-30T01:54:58.715Z,1009.93
2018-06-30T01:55:58.939Z,1009.91
2018-06-30T01:56:58.756Z,1009.94
2018-06-30T01:57:58.776Z,1009.88
2018-06-30T01:58:58.797Z,1009.93
2018-06-30T01:59:58.825Z,1009.94
2018-06-30T02:00:58.842Z,1009.92
2018-06-30T02:01:58.862Z,1009.91
2018-06-30T02:02:58.885Z,1009.92
2018-06-30T02:03:58.924Z,1009.95
2018-06-30T02:04:58.926Z,1009.96
2018-06-30T02:05:58.952Z,1009.88
2018-06-30T02:06:58.971Z,1009.97
2018-06-30T02:07:58.991Z,1009.97
2018-06-30T02:08:59.014Z,1009.92
2018-06-30T02:09:59.036Z,1009.94
2018-06-30T02:10:59.055Z,1009.95
2018-06-30T02:11:59.077Z,1009.89
2018-06-30T02:12:59.097Z,1010.00
2018-06-30T02:13:59.120Z,1009.94
2018-06-30T02:14:59.141Z,1009.97
2018-06-30T02:15:59.167Z,1009.91
2018-06-30T02:16:59.184Z,1009.88
2018-06-30T02:17:59.211Z,1009.90
2018-06-30T02:18:59.230Z,1009.87
2018-06-30T02:19:59.250Z,1009.89
2018-06-30T02:20:59.272Z,1009.89
2018-06-30T02:21:59.293Z,1009.90
2018-06-30T02:22:59.316Z,1009.92
2018-06-30T02:23:59.336Z,1009.87
2018-06-30T02:24:59.357Z,1009.90
2018-06-30T02:25:59.378Z,1009.89
2018-06-30T02:26:59.398Z,1009.95
2018-06-30T02:27:59.423Z,1009.93
2018-06-30T02:28:59.440Z,1009.95
2018-06-30T02:29:59.462Z,1009.96
2018-06-30T02:30:59.484Z,1009.94
2018-06-30T02:31:59.508Z,1010.00
2018-06-30T02:32:59.530Z,1009.97
2018-06-30T02:33:59.551Z,1009.94
2018-06-30T02:34:59.570Z,1009.92
2018-06-30T02:35:59.593Z,1009.94
2018-06-30T02:36:59.615Z,1009.90
2018-06-30T02:37:59.639Z,1009.97
2018-06-30T02:38:59.669Z,1009.96
2018-06-30T02:39:59.680Z,1009.95
2018-06-30T02:40:59.700Z,1010.00
2018-06-30T02:41:59.723Z,1009.99
2018-06-30T02:42:59.745Z,1010.02
2018-06-30T02:43:59.763Z,1010.02
2018-06-30T02:44:59.784Z,1010.00
2018-06-30T02:45:59.850Z,1010.00
2018-06-30T02:46:59.830Z,1010.00
2018-06-30T02:47:59.850Z,1010.06
2018-06-30T02:48:59.870Z,1010.05
2018-06-30T02:49:59.896Z,1010.01
2018-06-30T02:50:59.915Z,1010.03
2018-06-30T02:51:59.939Z,1010.04
2018-06-30T02:52:59.956Z,1010.02
2018-06-30T02:53:59.977Z,1010.03
2018-06-30T02:54:59.999Z,1010.04
2018-06-30T02:56:00.035Z,1010.05
2018-06-30T02:57:00.050Z,1010.04
2018-06-30T02:58:00.067Z,1010.06
2018-06-30T02:59:00.087Z,1010.08
2018-06-30T03:00:00.121Z,1010.06
2018-06-30T03:01:00.133Z,1010.08
2018-06-30T03:02:00.153Z,1010.09
2018-06-30T03:03:00.174Z,1010.06
2018-06-30T03:04:00.193Z,1010.07
2018-06-30T03:05:00.214Z,1010.10
2018-06-30T03:06:00.239Z,1010.08
2018-06-30T03:07:00.260Z,1010.10
2018-06-30T03:08:00.278Z,1010.12
2018-06-30T03:09:00.304Z,1010.09
2018-06-30T03:10:00.322Z,1010.09
2018-06-30T03:11:00.344Z,1010.09
2018-06-30T03:12:00.368Z,1010.09
2018-06-30T03:13:00.390Z,1010.13
2018-06-30T03:14:00.410Z,1010.12
2018-06-30T03:15:00.434Z,1010.10
2018-06-30T03:16:00.451Z,1010.12
2018-06-30T03:17:00.475Z,1010.13
2018-06-30T03:18:00.493Z,1010.13
2018-06-30T03:19:00.515Z,1010.17
2018-06-30T03:20:00.540Z,1010.11
2018-06-30T03:21:00.561Z,1010.17
2018-06-30T03:22:00.579Z,1010.09
2018-06-30T03:23:00.603Z,1010.11
2018-06-30T03:24:00.627Z,1010.12
2018-06-30T03:25:00.647Z,1010.11
2018-06-30T03:26:00.666Z,1010.18
2018-06-30T03:27:00.691Z,1010.13
2018-06-30T03:28:00.708Z,1010.16
2018-06-30T03:29:00.729Z,1010.12
2018-06-30T03:30:00.751Z,1010.09
2018-06-30T03:31:00.773Z,1010.12
2018-06-30T03:32:00.795Z,1010.15
2018-06-30T03:33:00.816Z,1010.10
2018-06-30T03:34:00.840Z,1010.15
2018-06-30T03:35:00.862Z,1010.13
2018-06-30T03:36:00.883Z,1010.18
2018-06-30T03:37:00.906Z,1010.11
2018-06-30T03:38:00.926Z,1010.16
2018-06-30T03:39:00.955Z,1010.15
2018-06-30T03:40:00.969Z,1010.16
2018-06-30T03:41:00.988Z,1010.18
2018-06-30T03:42:01.011Z,1010.16
2018-06-30T03:43:01.031Z,1010.16
2018-06-30T03:44:01.055Z,1010.16
2018-06-30T03:45:01.074Z,1010.16
2018-06-30T03:46:01.099Z,1010.18
2018-06-30T03:47:01.121Z,1010.17
2018-06-30T03:48:01.138Z,1010.14
2018-06-30T03:49:01.166Z,1010.13
2018-06-30T03:50:01.185Z,1010.11
2018-06-30T03:51:01.203Z,1010.11
2018-06-30T03:52:01.226Z,1010.07
2018-06-30T03:53:01.245Z,1010.11
2018-06-30T03:54:01.269Z,1010.11
2018-06-30T03:55:01.290Z,1010.06
2018-06-30T03:56:01.310Z,1010.09
2018-06-30T03:57:01.334Z,1010.16
2018-06-30T03:58:01.356Z,1010.09
2018-06-30T03:59:01.384Z,1010.17
2018-06-30T04:00:01.396Z,1010.13
2018-06-30T04:01:01.419Z,1010.13
2018-06-30T04:02:01.439Z,1010.10
2018-06-30T04:03:01.463Z,1010.11
2018-06-30T04:04:01.482Z,1010.09
2018-06-30T04:05:01.506Z,1010.07
2018-06-30T04:06:01.527Z,1010.04
2018-06-30T04:07:01.549Z,1010.06
2018-06-30T04:08:01.567Z,1010.06
2018-06-30T04:09:01.592Z,1010.06
2018-06-30T04:10:01.612Z,1010.10
2018-06-30T04:11:01.637Z,1010.05
2018-06-30T04:12:01.657Z,1010.08
2018-06-30T04:13:01.676Z,1010.06
2018-06-30T04:14:01.698Z,1010.10
2018-06-30T04:15:01.722Z,1010.12
2018-06-30T04:16:01.744Z,1010.07
2018-06-30T04:17:01.760Z,1010.09
2018-06-30T04:18:01.782Z,1010.08
2018-06-30T04:19:01.809Z,1010.10
2018-06-30T04:20:01.835Z,1010.13
2018-06-30T04:21:01.850Z,1010.09
2018-06-30T04:22:01.928Z,1010.14
2018-06-30T04:23:01.895Z,1010.14
2018-06-30T04:24:01.913Z,1010.11
2018-06-30T04:25:01.933Z,1010.13
2018-06-30T04:26:01.958Z,1010.09
2018-06-30T04:27:01.977Z,1010.13
2018-06-30T04:28:02.002Z,1010.12
2018-06-30T04:29:02.021Z,1010.14
2018-06-30T04:30:02.041Z,1010.11
2018-06-30T04:31:02.065Z,1010.13
2018-06-30T04:32:02.087Z,1010.12
2018-06-30T04:33:02.107Z,1010.13
2018-06-30T04:34:02.132Z,1010.16
2018-06-30T04:35:02.152Z,1010.14
2018-06-30T04:36:02.174Z,1010.17
2018-06-30T04:37:02.194Z,1010.14
2018-06-30T04:38:02.213Z,1010.16
2018-06-30T04:39:02.237Z,1010.16
2018-06-30T04:40:02.256Z,1010.14
2018-06-30T04:41:02.277Z,1010.18
2018-06-30T04:42:02.302Z,1010.18
2018-06-30T04:43:02.323Z,1010.18
2018-06-30T04:44:02.347Z,1010.21
2018-06-30T04:45:02.363Z,1010.22
2018-06-30T04:46:02.384Z,1010.23
2018-06-30T04:47:02.408Z,1010.21
2018-06-30T04:48:02.429Z,1010.18
2018-06-30T04:49:02.451Z,1010.22
2018-06-30T04:50:02.475Z,1010.21
2018-06-30T04:51:02.511Z,1010.23
2018-06-30T04:52:02.518Z,1010.23
2018-06-30T04:53:02.535Z,1010.25
2018-06-30T04:54:02.559Z,1010.28
2018-06-30T04:55:02.580Z,1010.25
2018-06-30T04:56:02.607Z,1010.20
2018-06-30T04:57:02.624Z,1010.24
2018-06-30T04:58:02.644Z,1010.23
2018-06-30T04:59:02.667Z,1010.26
2018-06-30T05:00:02.689Z,1010.25
2018-06-30T05:01:02.707Z,1010.22
2018-06-30T05:02:02.731Z,1010.27
2018-06-30T05:03:02.752Z,1010.26
2018-06-30T05:04:02.775Z,1010.30
2018-06-30T05:05:02.794Z,1010.27
2018-06-30T05:06:02.819Z,1010.30
2018-06-30T05:07:02.837Z,1010.30
2018-06-30T05:08:02.865Z,1010.33
2018-06-30T05:09:02.881Z,1010.36
2018-06-30T05:10:02.905Z,1010.36
2018-06-30T05:11:02.927Z,1010.38
2018-06-30T05:12:02.947Z,1010.33
2018-06-30T05:13:02.970Z,1010.35
2018-06-30T05:14:02.992Z,1010.36
2018-06-30T05:15:03.028Z,1010.39
2018-06-30T05:16:03.038Z,1010.38
2018-06-30T05:17:03.060Z,1010.37
2018-06-30T05:18:03.080Z,1010.38
2018-06-30T05:19:03.100Z,1010.37
2018-06-30T05:20:03.123Z,1010.40
2018-06-30T05:21:03.146Z,1010.37
2018-06-30T05:22:03.166Z,1010.37
2018-06-30T05:23:03.189Z,1010.37
2018-06-30T05:24:03.211Z,1010.36
2018-06-30T05:25:03.232Z,1010.39
2018-06-30T05:26:03.261Z,1010.40
2018-06-30T05:27:03.280Z,1010.39
2018-06-30T05:28:03.303Z,1010.39
2018-06-30T05:29:03.325Z,1010.43
2018-06-30T05:30:03.348Z,1010.42
2018-06-30T05:31:03.367Z,1010.40
2018-06-30T05:32:03.390Z,1010.45
2018-06-30T05:33:03.413Z,1010.42
2018-06-30T05:34:03.436Z,1010.47
2018-06-30T05:35:03.459Z,1010.44
2018-06-30T05:36:03.483Z,1010.44
2018-06-30T05:37:03.501Z,1010.42
2018-06-30T05:38:03.527Z,1010.44
2018-06-30T05:39:03.551Z,1010.45
2018-06-30T05:40:03.572Z,1010.44
2018-06-30T05:41:03.611Z,1010.43
2018-06-30T05:42:03.616Z,1010.45
2018-06-30T05:43:03.637Z,1010.47
2018-06-30T05:44:03.661Z,1010.45
2018-06-30T05:45:03.683Z,1010.43
2018-06-30T05:46:03.708Z,1010.45
2018-06-30T05:47:03.732Z,1010.51
2018-06-30T05:48:03.755Z,1010.43
2018-06-30T05:49:03.776Z,1010.52
2018-06-30T05:50:03.800Z,1010.50
2018-06-30T05:51:03.822Z,1010.44
2018-06-30T05:52:03.844Z,1010.47
2018-06-30T05:53:03.867Z,1010.46
2018-06-30T05:54:03.893Z,1010.47
2018-06-30T05:55:03.918Z,1010.51
2018-06-30T05:56:03.937Z,1010.50
2018-06-30T05:57:03.961Z,1010.50
2018-06-30T05:58:03.987Z,1010.48
2018-06-30T05:59:04.011Z,1010.47
2018-06-30T06:00:04.034Z,1010.49
2018-06-30T06:01:04.055Z,1010.50
2018-06-30T06:02:04.081Z,1010.55
2018-06-30T06:03:04.107Z,1010.52
2018-06-30T06:04:04.129Z,1010.53
2018-06-30T06:05:04.148Z,1010.47
2018-06-30T06:06:04.172Z,1010.45
2018-06-30T06:07:04.196Z,1010.48
2018-06-30T06:08:04.224Z,1010.46
2018-06-30T06:09:04.245Z,1010.50
2018-06-30T06:10:04.283Z,1010.53
2018-06-30T06:11:04.291Z,1010.51
2018-06-30T06:12:04.319Z,1010.51
2018-06-30T06:13:04.342Z,1010.57
2018-06-30T06:14:04.363Z,1010.50
2018-06-30T06:15:04.418Z,1010.49
2018-06-30T06:16:04.412Z,1010.50
2018-06-30T06:17:04.437Z,1010.50
2018-06-30T06:18:04.461Z,1010.49
2018-06-30T06:19:04.487Z,1010.50
2018-06-30T06:20:04.546Z,1010.47
2018-06-30T06:21:04.537Z,1010.48
2018-06-30T06:22:04.559Z,1010.50
2018-06-30T06:23:04.583Z,1010.47
2018-06-30T06:24:04.606Z,1010.47
2018-06-30T06:25:04.634Z,1010.47
2018-06-30T06:26:04.661Z,1010.49
2018-06-30T06:27:04.681Z,1010.46
2018-06-30T06:28:04.706Z,1010.46
2018-06-30T06:29:04.732Z,1010.46
2018-06-30T06:30:04.753Z,1010.54
2018-06-30T06:31:04.802Z,1010.51
2018-06-30T06:32:04.803Z,1010.54
2018-06-30T06:33:04.836Z,1010.54
2018-06-30T06:34:04.856Z,1010.58
2018-06-30T06:35:04.884Z,1010.63
2018-06-30T06:36:04.907Z,1010.58
2018-06-30T06:37:04.931Z,1010.65
2018-06-30T06:38:04.961Z,1010.64
2018-06-30T06:39:04.981Z,1010.68
2018-06-30T06:40:05.008Z,1010.66
2018-06-30T06:41:05.029Z,1010.68
2018-06-30T06:42:05.062Z,1010.68
2018-06-30T06:43:05.083Z,1010.66
2018-06-30T06:44:05.107Z,1010.71
2018-06-30T06:45:05.132Z,1010.72
2018-06-30T06:46:05.158Z,1010.73
2018-06-30T06:47:05.183Z,1010.68
2018-06-30T06:48:05.208Z,1010.67
2018-06-30T06:49:05.237Z,1010.66
2018-06-30T06:50:05.259Z,1010.66
2018-06-30T06:51:05.348Z,1010.60
2018-06-30T06:52:05.316Z,1010.62
2018-06-30T06:53:05.339Z,1010.63
2018-06-30T06:54:05.367Z,1010.63
2018-06-30T06:55:05.390Z,1010.60
2018-06-30T06:56:05.417Z,1010.63
2018-06-30T06:57:05.440Z,1010.67
2018-06-30T06:58:05.469Z,1010.63
2018-06-30T06:59:05.496Z,1010.65
2018-06-30T07:00:05.521Z,1010.59
2018-06-30T07:01:05.551Z,1010.64
2018-06-30T07:02:05.582Z,1010.61
2018-06-30T07:03:05.687Z,1010.61
2018-06-30T07:04:05.629Z,1010.58
2018-06-30T07:05:05.658Z,1010.61
2018-06-30T07:06:05.679Z,1010.58
2018-06-30T07:07:05.704Z,1010.61
2018-06-30T07:08:05.730Z,1010.63
2018-06-30T07:09:05.759Z,1010.63
2018-06-30T07:10:05.784Z,1010.62
2018-06-30T07:11:05.815Z,1010.62
2018-06-30T07:12:05.837Z,1010.61
2018-06-30T07:13:05.869Z,1010.63
2018-06-30T07:14:05.891Z,1010.60
2018-06-30T07:15:05.919Z,1010.67
2018-06-30T07:16:05.944Z,1010.61
2018-06-30T07:17:05.972Z,1010.63
2018-06-30T07:18:06.000Z,1010.67
2018-06-30T07:19:06.030Z,1010.68
2018-06-30T07:20:06.052Z,1010.72
2018-06-30T07:21:06.079Z,1010.73
2018-06-30T07:22:06.108Z,1010.75
2018-06-30T07:23:06.133Z,1010.83
2018-06-30T07:24:06.164Z,1010.93
2018-06-30T07:25:06.189Z,1010.91
2018-06-30T07:26:06.221Z,1010.99
2018-06-30T07:27:06.253Z,1011.20
2018-06-30T07:28:06.273Z,1011.30
2018-06-30T07:29:06.301Z,1011.29
2018-06-30T07:30:06.326Z,1011.33
2018-06-30T07:31:06.355Z,1011.41
2018-06-30T07:32:06.385Z,1011.52
2018-06-30T07:33:06.413Z,1011.69
2018-06-30T07:34:06.439Z,1011.93
2018-06-30T07:35:06.468Z,1011.92
2018-06-30T07:36:06.494Z,1012.02
2018-06-30T07:37:06.521Z,1012.17
2018-06-30T07:38:06.552Z,1012.24
2018-06-30T07:39:06.584Z,1012.07
2018-06-30T07:40:06.607Z,1011.91
2018-06-30T07:41:06.642Z,1011.79
2018-06-30T07:42:06.665Z,1011.67
2018-06-30T07:43:06.726Z,1011.54
2018-06-30T07:44:06.722Z,1011.43
2018-06-30T07:45:06.752Z,1011.43
2018-06-30T07:46:06.777Z,1011.32
2018-06-30T07:47:06.808Z,1011.23
2018-06-30T07:48:06.836Z,1011.14
2018-06-30T07:49:06.863Z,1011.14
2018-06-30T07:50:06.971Z,1011.11
2018-06-30T07:51:06.922Z,1011.10
2018-06-30T07:52:06.953Z,1011.07
2018-06-30T07:53:06.979Z,1010.98
2018-06-30T07:54:07.009Z,1011.03
2018-06-30T07:55:07.040Z,1011.04
2018-06-30T07:56:07.099Z,1011.02
2018-06-30T07:57:07.098Z,1011.03
2018-06-30T07:58:07.126Z,1010.98
2018-06-30T07:59:07.153Z,1010.95
2018-06-30T08:00:07.186Z,1010.98
2018-06-30T08:01:07.211Z,1010.94
2018-06-30T08:02:07.301Z,1010.90
2018-06-30T08:03:07.273Z,1010.94
2018-06-30T08:04:07.301Z,1010.98
2018-06-30T08:05:07.332Z,1010.97
2018-06-30T08:06:07.362Z,1010.92
2018-06-30T08:07:07.391Z,1010.98
2018-06-30T08:08:07.421Z,1010.91
2018-06-30T08:09:07.450Z,1010.90
2018-06-30T08:10:07.480Z,1010.92
2018-06-30T08:11:07.510Z,1010.90
2018-06-30T08:12:07.536Z,1010.95
2018-06-30T08:13:07.572Z,1010.88
2018-06-30T08:14:07.597Z,1010.88
2018-06-30T08:15:07.630Z,1010.86
2018-06-30T08:16:07.659Z,1010.84
2018-06-30T08:17:07.690Z,1010.91
2018-06-30T08:18:07.716Z,1010.93
2018-06-30T08:19:07.748Z,1010.93
2018-06-30T08:20:07.781Z,1011.00
2018-06-30T08:21:07.821Z,1010.99
2018-06-30T08:22:07.838Z,1010.98
2018-06-30T08:23:07.868Z,1010.96
2018-06-30T08:24:07.897Z,1011.03
2018-06-30T08:25:07.929Z,1011.08
2018-06-30T08:26:07.956Z,1011.15
2018-06-30T08:27:07.984Z,1011.20
2018-06-30T08:28:08.018Z,1011.17
2018-06-30T08:29:08.049Z,1011.27
2018-06-30T08:30:08.075Z,1011.34
2018-06-30T08:31:08.106Z,1011.42
2018-06-30T08:32:08.138Z,1011.39
2018-06-30T08:33:08.165Z,1011.29
2018-06-30T08:34:08.198Z,1011.26
2018-06-30T08:35:08.230Z,1011.21
2018-06-30T08:36:08.257Z,1011.20
2018-06-30T08:37:08.286Z,1011.16
2018-06-30T08:38:08.319Z,1011.11
2018-06-30T08:39:08.350Z,1011.08
2018-06-30T08:40:08.381Z,1011.05
2018-06-30T08:41:08.409Z,1011.04
2018-06-30T08:42:08.444Z,1011.04
2018-06-30T08:43:08.473Z,1011.04
2018-06-30T08:44:08.503Z,1011.08
2018-06-30T08:45:08.535Z,1011.03
2018-06-30T08:46:08.565Z,1010.99
2018-06-30T08:47:08.596Z,1011.01
2018-06-30T08:48:08.627Z,1010.96
2018-06-30T08:49:08.655Z,1010.99
2018-06-30T08:50:08.688Z,1010.95
2018-06-30T08:51:08.763Z,1011.01
2018-06-30T08:52:08.746Z,1011.08
2018-06-30T08:53:08.776Z,1011.04
2018-06-30T08:54:08.807Z,1011.04
2018-06-30T08:55:08.842Z,1011.04
2018-06-30T08:56:08.871Z,1010.96
2018-06-30T08:57:08.901Z,1010.98
2018-06-30T08:58:08.931Z,1011.00
2018-06-30T08:59:08.965Z,1011.01
2018-06-30T09:00:08.996Z,1011.16
2018-06-30T09:01:09.023Z,1011.09
2018-06-30T09:02:09.056Z,1011.14
2018-06-30T09:03:09.090Z,1011.12
2018-06-30T09:04:09.117Z,1011.20
2018-06-30T09:05:09.147Z,1011.16
2018-06-30T09:06:09.191Z,1011.14
2018-06-30T09:07:09.211Z,1011.17
2018-06-30T09:08:09.244Z,1011.18
2018-06-30T09:09:09.274Z,1011.09
2018-06-30T09:10:09.305Z,1011.16
2018-06-30T09:11:09.337Z,1011.18
2018-06-30T09:12:09.393Z,1011.14
2018-06-30T09:13:09.395Z,1011.12
2018-06-30T09:14:09.428Z,1011.16
2018-06-30T09:15:09.458Z,1011.10
2018-06-30T09:16:09.505Z,1011.23
2018-06-30T09:17:09.521Z,1011.26
2018-06-30T09:18:09.555Z,1011.24
2018-06-30T09:19:09.583Z,1011.21
2018-06-30T09:20:09.673Z,1011.29
2018-06-30T09:21:09.645Z,1011.25
2018-06-30T09:22:09.679Z,1011.27
2018-06-30T09:23:09.707Z,1011.26
2018-06-30T09:24:09.814Z,1011.19
2018-06-30T09:25:09.769Z,1011.26
2018-06-30T09:26:09.801Z,1011.27
2018-06-30T09:27:09.835Z,1011.27
2018-06-30T09:28:09.866Z,1011.25
2018-06-30T09:29:09.902Z,1011.30
2018-06-30T09:30:09.928Z,1011.26
2018-06-30T09:31:09.959Z,1011.30
2018-06-30T09:32:10.011Z,1011.28
2018-06-30T09:33:10.019Z,1011.33
2018-06-30T09:34:10.050Z,1011.34
2018-06-30T09:35:10.081Z,1011.36
2018-06-30T09:36:10.114Z,1011.34
2018-06-30T09:37:10.146Z,1011.38
2018-06-30T09:38:10.177Z,1011.43
2018-06-30T09:39:10.209Z,1011.44
2018-06-30T09:40:10.238Z,1011.39
2018-06-30T09:41:10.271Z,1011.45
2018-06-30T09:42:10.300Z,1011.43
2018-06-30T09:43:10.332Z,1011.52
2018-06-30T09:44:10.366Z,1011.53
2018-06-30T09:45:10.396Z,1011.53
2018-06-30T09:46:10.426Z,1011.56
2018-06-30T09:47:10.458Z,1011.58
2018-06-30T09:48:10.492Z,1011.63
2018-06-30T09:49:10.519Z,1011.67
2018-06-30T09:50:10.553Z,1011.68
2018-06-30T09:51:10.584Z,1011.72
2018-06-30T09:52:10.612Z,1011.72
2018-06-30T09:53:10.643Z,1011.67
2018-06-30T09:54:10.680Z,1011.74
2018-06-30T09:55:10.709Z,1011.74
2018-06-30T09:56:10.738Z,1011.71
2018-06-30T09:57:10.772Z,1011.73
2018-06-30T09:58:10.801Z,1011.76
2018-06-30T09:59:10.835Z,1011.73
2018-06-30T10:00:10.866Z,1011.74
2018-06-30T10:01:10.896Z,1011.74
2018-06-30T10:02:10.925Z,1011.75
2018-06-30T10:03:10.957Z,1011.71
2018-06-30T10:04:10.993Z,1011.67
2018-06-30T10:05:11.021Z,1011.75
2018-06-30T10:06:11.055Z,1011.72
2018-06-30T10:07:11.087Z,1011.69
2018-06-30T10:08:11.115Z,1011.59
2018-06-30T10:09:11.183Z,1011.64
2018-06-30T10:10:11.180Z,1011.67
2018-06-30T10:11:11.211Z,1011.71
2018-06-30T10:12:11.292Z,1011.65
2018-06-30T10:13:11.274Z,1011.65
2018-06-30T10:14:11.304Z,1011.70
2018-06-30T10:15:11.336Z,1011.70
2018-06-30T10:16:11.368Z,1011.74
2018-06-30T10:17:11.401Z,1011.76
2018-06-30T10:18:11.430Z,1011.70
2018-06-30T10:19:11.501Z,1011.74
2018-06-30T10:20:11.496Z,1011.73
2018-06-30T10:21:11.552Z,1011.71
2018-06-30T10:22:11.559Z,1011.75
2018-06-30T10:23:11.591Z,1011.74
2018-06-30T10:24:11.619Z,1011.72
2018-06-30T10:25:11.653Z,1011.72
2018-06-30T10:26:11.684Z,1011.77
2018-06-30T10:27:11.717Z,1011.77
2018-06-30T10:28:11.745Z,1011.78
2018-06-30T10:29:11.776Z,1011.77
2018-06-30T10:30:11.808Z,1011.76
2018-06-30T10:31:11.844Z,1011.78
2018-06-30T10:32:11.870Z,1011.74
2018-06-30T10:33:11.902Z,1011.74
2018-06-30T10:34:11.932Z,1011.74
2018-06-30T10:35:11.965Z,1011.69
2018-06-30T10:36:11.997Z,1011.65
2018-06-30T10:37:12.027Z,1011.59
2018-06-30T10:38:12.062Z,1011.58
2018-06-30T10:39:12.093Z,1011.58
2018-06-30T10:40:12.126Z,1011.49
2018-06-30T10:41:12.154Z,1011.59
2018-06-30T10:42:12.194Z,1011.53
2018-06-30T10:43:12.216Z,1011.61
2018-06-30T10:44:12.248Z,1011.60
2018-06-30T10:45:12.283Z,1011.63
2018-06-30T10:46:12.314Z,1011.56
2018-06-30T10:47:12.346Z,1011.61
2018-06-30T10:48:12.379Z,1011.60
2018-06-30T10:49:12.407Z,1011.59
2018-06-30T10:50:12.437Z,1011.59
2018-06-30T10:51:12.472Z,1011.54
2018-06-30T10:52:12.509Z,1011.59
2018-06-30T10:53:12.532Z,1011.71
2018-06-30T10:54:12.564Z,1011.76
2018-06-30T10:55:12.598Z,1011.81
2018-06-30T10:56:12.628Z,1011.75
2018-06-30T10:57:12.660Z,1011.73
2018-06-30T10:58:12.691Z,1011.80
2018-06-30T10:59:12.725Z,1011.82
2018-06-30T11:00:12.790Z,1011.92
2018-06-30T11:01:12.785Z,1011.87
2018-06-30T11:02:12.819Z,1011.86
2018-06-30T11:03:12.852Z,1011.85
2018-06-30T11:04:12.903Z,1011.94
2018-06-30T11:05:12.976Z,1011.98
2018-06-30T11:06:12.946Z,1012.09
2018-06-30T11:07:13.013Z,1012.24
2018-06-30T11:08:13.008Z,1012.29
2018-06-30T11:09:13.039Z,1012.20
2018-06-30T11:10:13.070Z,1012.24
2018-06-30T11:11:13.103Z,1012.26
2018-06-30T11:12:13.140Z,1012.29
2018-06-30T11:13:13.165Z,1012.27
2018-06-30T11:14:13.195Z,1012.23
2018-06-30T11:15:13.231Z,1012.29
2018-06-30T11:16:13.263Z,1012.35
2018-06-30T11:17:13.290Z,1012.42
2018-06-30T11:18:13.326Z,1012.64
2018-06-30T11:19:13.358Z,1012.71
2018-06-30T11:20:13.395Z,1012.95
2018-06-30T11:21:13.420Z,1013.18
2018-06-30T11:22:13.451Z,1013.28
2018-06-30T11:23:13.481Z,1013.31
2018-06-30T11:24:13.512Z,1013.46
2018-06-30T11:25:13.545Z,1013.53
2018-06-30T11:26:13.578Z,1013.68
2018-06-30T11:27:13.606Z,1013.76
2018-06-30T11:28:13.640Z,1013.69
2018-06-30T11:29:13.668Z,1013.66
2018-06-30T11:30:13.702Z,1013.72
2018-06-30T11:31:13.732Z,1013.66
2018-06-30T11:32:13.764Z,1013.73
2018-06-30T11:33:13.795Z,1013.65
2018-06-30T11:34:13.827Z,1013.64
2018-06-30T11:35:13.857Z,1013.79
2018-06-30T11:36:13.888Z,1013.82
2018-06-30T11:37:13.921Z,1013.94
2018-06-30T11:38:13.951Z,1013.81
2018-06-30T11:39:13.984Z,1013.78
2018-06-30T11:40:14.092Z,1013.66
2018-06-30T11:41:14.055Z,1013.59
2018-06-30T11:42:14.127Z,1013.73
2018-06-30T11:43:14.110Z,1013.56
2018-06-30T11:44:14.141Z,1013.43
2018-06-30T11:45:14.174Z,1013.25
2018-06-30T11:46:14.202Z,1013.01
2018-06-30T11:47:14.233Z,1012.98
2018-06-30T11:48:14.266Z,1012.73
2018-06-30T11:49:14.295Z,1012.34
2018-06-30T11:50:14.329Z,1011.91
2018-06-30T11:51:14.358Z,1011.71
2018-06-30T11:52:14.391Z,1011.62
2018-06-30T11:53:14.421Z,1011.61
2018-06-30T11:54:14.449Z,1011.28
2018-06-30T11:55:14.482Z,1010.91
2018-06-30T11:56:14.514Z,1010.55
2018-06-30T11:57:14.544Z,1010.25
2018-06-30T11:58:14.577Z,1010.10
2018-06-30T11:59:14.606Z,1010.17
2018-06-30T12:00:14.640Z,1010.22
2018-06-30T12:01:14.667Z,1010.20
2018-06-30T12:02:14.702Z,1010.18
2018-06-30T12:03:14.730Z,1010.28
2018-06-30T12:04:14.764Z,1010.28
2018-06-30T12:05:14.791Z,1010.21
2018-06-30T12:06:14.838Z,1010.13